Impacts TAF Board INFO
FOR SITUATIONAL AWARENESS. NOT TO BE USED FOR FLIGHT PLANNING PURPOSES.
IDs:

KBWI - Baltimore-Washington, MD, US

Issued at 0538 UTC 15 Dec 2017
Updated at 0812 UTC 15 Dec 2017
Potential Impact None Slight Moderate High
Time<<16/09Z 16/10Z 16/11Z 16/12Z 16/13Z 16/14Z 16/15Z 16/16Z 16/17Z 16/18Z 16/19Z 16/20Z 16/21Z
Type PRVL PRVL PRVL
VIS >6 >6 >6
CIG -- -- --
Cover SCT SCT SCT
FltCat VFR VFR VFR
WX -- -- --
WDir 260 260 260
WSpd 4 4 4
WGst -- -- --

Raw TAF
KBWI 150538Z 1506/1612 01006KT P6SM OVC150
  FM151200 VRB03KT P6SM BKN045
  FM151700 14004KT P6SM OVC030
  FM152000 22004KT P6SM OVC015
  FM152200 25004KT P6SM BKN035
  FM160000 26004KT P6SM SCT060 SCT250


METAR Board
Radar Display
Forecast Discussion

FOR SITUATIONAL AWARENESS. NOT TO BE USED FOR FLIGHT PLANNING PURPOSES.